sensor_id;sensor_type;location;lat;lon;timestamp;P1;durP1;ratioP1;P2;durP2;ratioP2
2542;SDS011;1116;51.502;7.414;2023-05-07T00:00:35;12.60;;;11.30;;
2542;SDS011;1116;51.502;7.414;2023-05-07T00:03:08;12.70;;;11.50;;
2542;SDS011;1116;51.502;7.414;2023-05-07T00:05:41;12.47;;;11.23;;
2542;SDS011;1116;51.502;7.414;2023-05-07T00:08:15;13.37;;;11.97;;
2542;SDS011;1116;51.502;7.414;2023-05-07T00:10:47;11.93;;;10.87;;
2542;SDS011;1116;51.502;7.414;2023-05-07T00:13:18;13.03;;;11.80;;
2542;SDS011;1116;51.502;7.414;2023-05-07T00:15:50;12.37;;;11.37;;
2542;SDS011;1116;51.502;7.414;2023-05-07T00:18:21;13.60;;;11.63;;
2542;SDS011;1116;51.502;7.414;2023-05-07T00:20:55;12.20;;;11.10;;
2542;SDS011;1116;51.502;7.414;2023-05-07T00:23:26;11.33;;;10.23;;
2542;SDS011;1116;51.502;7.414;2023-05-07T00:25:57;12.17;;;11.07;;
2542;SDS011;1116;51.502;7.414;2023-05-07T00:28:28;11.30;;;10.30;;
2542;SDS011;1116;51.502;7.414;2023-05-07T00:30:59;10.90;;;9.90;;
2542;SDS011;1116;51.502;7.414;2023-05-07T00:33:30;13.00;;;11.73;;
2542;SDS011;1116;51.502;7.414;2023-05-07T00:36:04;12.63;;;11.43;;
2542;SDS011;1116;51.502;7.414;2023-05-07T00:38:36;13.60;;;11.67;;
2542;SDS011;1116;51.502;7.414;2023-05-07T00:41:07;12.27;;;11.27;;
2542;SDS011;1116;51.502;7.414;2023-05-07T00:43:38;14.00;;;12.70;;
2542;SDS011;1116;51.502;7.414;2023-05-07T00:46:08;14.30;;;12.73;;
2542;SDS011;1116;51.502;7.414;2023-05-07T00:48:40;12.77;;;11.57;;
2542;SDS011;1116;51.502;7.414;2023-05-07T00:51:13;13.90;;;12.60;;
2542;SDS011;1116;51.502;7.414;2023-05-07T00:53:45;11.20;;;10.20;;
2542;SDS011;1116;51.502;7.414;2023-05-07T00:56:16;14.13;;;12.17;;
2542;SDS011;1116;51.502;7.414;2023-05-07T00:58:48;13.77;;;12.37;;
2542;SDS011;1116;51.502;7.414;2023-05-07T01:01:19;15.07;;;13.47;;
2542;SDS011;1116;51.502;7.414;2023-05-07T01:03:50;14.40;;;13.00;;
2542;SDS011;1116;51.502;7.414;2023-05-07T01:06:24;12.57;;;11.37;;
2542;SDS011;1116;51.502;7.414;2023-05-07T01:08:56;16.07;;;14.47;;
2542;SDS011;1116;51.502;7.414;2023-05-07T01:11:28;12.97;;;11.87;;
2542;SDS011;1116;51.502;7.414;2023-05-07T01:13:59;14.13;;;12.83;;
2542;SDS011;1116;51.502;7.414;2023-05-07T01:16:30;13.97;;;12.63;;
2542;SDS011;1116;51.502;7.414;2023-05-07T01:19:01;13.80;;;12.50;;
2542;SDS011;1116;51.502;7.414;2023-05-07T01:21:35;14.40;;;13.07;;
2542;SDS011;1116;51.502;7.414;2023-05-07T01:24:13;14.50;;;13.00;;
2542;SDS011;1116;51.502;7.414;2023-05-07T01:26:47;14.40;;;13.00;;
2542;SDS011;1116;51.502;7.414;2023-05-07T01:29:20;18.60;;;15.73;;
2542;SDS011;1116;51.502;7.414;2023-05-07T01:31:51;14.77;;;13.37;;
2542;SDS011;1116;51.502;7.414;2023-05-07T01:34:25;14.70;;;13.20;;
2542;SDS011;1116;51.502;7.414;2023-05-07T01:36:58;13.63;;;12.43;;
2542;SDS011;1116;51.502;7.414;2023-05-07T01:39:32;15.03;;;13.53;;
2542;SDS011;1116;51.502;7.414;2023-05-07T01:42:04;13.77;;;12.30;;
2542;SDS011;1116;51.502;7.414;2023-05-07T01:44:35;15.27;;;13.87;;
2542;SDS011;1116;51.502;7.414;2023-05-07T01:47:06;15.50;;;14.00;;
2542;SDS011;1116;51.502;7.414;2023-05-07T01:49:37;16.20;;;14.63;;
2542;SDS011;1116;51.502;7.414;2023-05-07T01:52:09;13.60;;;12.33;;
2542;SDS011;1116;51.502;7.414;2023-05-07T01:54:43;14.83;;;13.30;;
2542;SDS011;1116;51.502;7.414;2023-05-07T01:57:15;14.90;;;13.30;;
2542;SDS011;1116;51.502;7.414;2023-05-07T01:59:46;15.20;;;13.90;;
2542;SDS011;1116;51.502;7.414;2023-05-07T02:02:17;17.77;;;16.07;;
2542;SDS011;1116;51.502;7.414;2023-05-07T02:04:47;16.60;;;14.90;;
2542;SDS011;1116;51.502;7.414;2023-05-07T02:07:19;18.60;;;16.77;;
2542;SDS011;1116;51.502;7.414;2023-05-07T02:09:52;18.37;;;16.67;;
2542;SDS011;1116;51.502;7.414;2023-05-07T02:12:23;17.50;;;15.90;;
2542;SDS011;1116;51.502;7.414;2023-05-07T02:14:54;17.90;;;16.20;;
2542;SDS011;1116;51.502;7.414;2023-05-07T02:17:25;16.63;;;15.03;;
2542;SDS011;1116;51.502;7.414;2023-05-07T02:19:59;16.13;;;14.63;;
2542;SDS011;1116;51.502;7.414;2023-05-07T02:22:31;16.97;;;15.27;;
2542;SDS011;1116;51.502;7.414;2023-05-07T02:25:04;17.77;;;16.07;;
2542;SDS011;1116;51.502;7.414;2023-05-07T02:27:36;27.67;;;24.93;;
2542;SDS011;1116;51.502;7.414;2023-05-07T02:30:07;20.37;;;18.57;;
2542;SDS011;1116;51.502;7.414;2023-05-07T02:32:39;22.17;;;20.20;;
2542;SDS011;1116;51.502;7.414;2023-05-07T02:35:15;29.37;;;26.43;;
2542;SDS011;1116;51.502;7.414;2023-05-07T02:37:46;26.90;;;24.20;;
2542;SDS011;1116;51.502;7.414;2023-05-07T02:40:20;24.57;;;22.07;;
2542;SDS011;1116;51.502;7.414;2023-05-07T02:42:51;25.40;;;23.00;;
2542;SDS011;1116;51.502;7.414;2023-05-07T02:45:22;24.03;;;21.70;;
2542;SDS011;1116;51.502;7.414;2023-05-07T02:47:53;24.07;;;21.57;;
2542;SDS011;1116;51.502;7.414;2023-05-07T02:50:24;25.00;;;22.40;;
2542;SDS011;1116;51.502;7.414;2023-05-07T02:52:55;23.53;;;21.13;;
2542;SDS011;1116;51.502;7.414;2023-05-07T02:55:28;23.80;;;21.60;;
2542;SDS011;1116;51.502;7.414;2023-05-07T02:57:59;21.10;;;19.10;;
2542;SDS011;1116;51.502;7.414;2023-05-07T03:00:30;20.50;;;18.60;;
2542;SDS011;1116;51.502;7.414;2023-05-07T03:03:01;21.53;;;19.43;;
2542;SDS011;1116;51.502;7.414;2023-05-07T03:05:32;18.67;;;16.83;;
2542;SDS011;1116;51.502;7.414;2023-05-07T03:08:03;18.77;;;16.97;;
2542;SDS011;1116;51.502;7.414;2023-05-07T03:10:37;18.33;;;16.63;;
2542;SDS011;1116;51.502;7.414;2023-05-07T03:13:08;16.77;;;15.03;;
2542;SDS011;1116;51.502;7.414;2023-05-07T03:15:39;17.07;;;15.30;;
2542;SDS011;1116;51.502;7.414;2023-05-07T03:18:10;14.80;;;13.20;;
2542;SDS011;1116;51.502;7.414;2023-05-07T03:20:41;14.47;;;13.03;;
2542;SDS011;1116;51.502;7.414;2023-05-07T03:23:12;15.57;;;14.17;;
2542;SDS011;1116;51.502;7.414;2023-05-07T03:25:46;16.50;;;14.93;;
2542;SDS011;1116;51.502;7.414;2023-05-07T03:28:17;18.10;;;16.20;;
2542;SDS011;1116;51.502;7.414;2023-05-07T03:30:50;19.77;;;17.80;;
2542;SDS011;1116;51.502;7.414;2023-05-07T03:33:21;15.63;;;13.87;;
2542;SDS011;1116;51.502;7.414;2023-05-07T03:35:52;16.80;;;15.20;;
2542;SDS011;1116;51.502;7.414;2023-05-07T03:38:23;17.53;;;15.50;;
2542;SDS011;1116;51.502;7.414;2023-05-07T03:40:56;16.90;;;15.30;;
2542;SDS011;1116;51.502;7.414;2023-05-07T03:43:27;18.60;;;16.80;;
2542;SDS011;1116;51.502;7.414;2023-05-07T03:45:58;18.33;;;16.40;;
2542;SDS011;1116;51.502;7.414;2023-05-07T03:48:29;17.67;;;15.97;;
2542;SDS011;1116;51.502;7.414;2023-05-07T03:51:00;19.13;;;17.23;;
2542;SDS011;1116;51.502;7.414;2023-05-07T03:53:31;19.53;;;17.70;;
2542;SDS011;1116;51.502;7.414;2023-05-07T03:56:05;19.97;;;18.00;;
2542;SDS011;1116;51.502;7.414;2023-05-07T03:58:36;19.33;;;17.33;;
2542;SDS011;1116;51.502;7.414;2023-05-07T04:01:07;19.70;;;17.63;;
2542;SDS011;1116;51.502;7.414;2023-05-07T04:03:37;18.20;;;16.23;;
2542;SDS011;1116;51.502;7.414;2023-05-07T04:06:09;18.30;;;16.50;;
2542;SDS011;1116;51.502;7.414;2023-05-07T04:08:43;19.97;;;17.93;;
2542;SDS011;1116;51.502;7.414;2023-05-07T04:11:17;16.93;;;15.30;;
2542;SDS011;1116;51.502;7.414;2023-05-07T04:13:48;17.63;;;15.80;;
2542;SDS011;1116;51.502;7.414;2023-05-07T04:16:19;16.97;;;15.27;;
2542;SDS011;1116;51.502;7.414;2023-05-07T04:18:50;18.20;;;16.47;;
2542;SDS011;1116;51.502;7.414;2023-05-07T04:21:21;18.13;;;16.20;;
2542;SDS011;1116;51.502;7.414;2023-05-07T04:23:53;19.20;;;16.83;;
2542;SDS011;1116;51.502;7.414;2023-05-07T04:26:26;18.07;;;16.37;;
2542;SDS011;1116;51.502;7.414;2023-05-07T04:28:57;16.70;;;15.00;;
2542;SDS011;1116;51.502;7.414;2023-05-07T04:31:28;22.70;;;16.20;;
2542;SDS011;1116;51.502;7.414;2023-05-07T04:34:00;17.43;;;15.83;;
2542;SDS011;1116;51.502;7.414;2023-05-07T04:36:31;17.13;;;15.50;;
2542;SDS011;1116;51.502;7.414;2023-05-07T04:39:04;17.00;;;15.20;;
2542;SDS011;1116;51.502;7.414;2023-05-07T04:41:38;15.33;;;13.83;;
2542;SDS011;1116;51.502;7.414;2023-05-07T04:44:09;16.43;;;14.73;;
2542;SDS011;1116;51.502;7.414;2023-05-07T04:46:40;14.93;;;13.43;;
2542;SDS011;1116;51.502;7.414;2023-05-07T04:49:11;15.53;;;14.03;;
2542;SDS011;1116;51.502;7.414;2023-05-07T04:51:42;15.90;;;14.40;;
2542;SDS011;1116;51.502;7.414;2023-05-07T04:54:13;15.17;;;13.77;;
2542;SDS011;1116;51.502;7.414;2023-05-07T04:56:49;12.77;;;11.67;;
2542;SDS011;1116;51.502;7.414;2023-05-07T04:59:20;14.00;;;12.50;;
2542;SDS011;1116;51.502;7.414;2023-05-07T05:01:51;13.37;;;11.97;;
2542;SDS011;1116;51.502;7.414;2023-05-07T05:04:25;14.10;;;12.87;;
2542;SDS011;1116;51.502;7.414;2023-05-07T05:06:56;12.60;;;11.40;;
2542;SDS011;1116;51.502;7.414;2023-05-07T05:09:28;12.83;;;11.53;;
2542;SDS011;1116;51.502;7.414;2023-05-07T05:12:01;10.57;;;9.67;;
2542;SDS011;1116;51.502;7.414;2023-05-07T05:14:34;11.70;;;10.67;;
2542;SDS011;1116;51.502;7.414;2023-05-07T05:17:05;12.43;;;11.23;;
2542;SDS011;1116;51.502;7.414;2023-05-07T05:19:36;11.13;;;10.13;;
2542;SDS011;1116;51.502;7.414;2023-05-07T05:22:07;11.43;;;10.33;;
2542;SDS011;1116;51.502;7.414;2023-05-07T05:24:38;11.37;;;10.23;;
2542;SDS011;1116;51.502;7.414;2023-05-07T05:27:11;10.47;;;9.53;;
2542;SDS011;1116;51.502;7.414;2023-05-07T05:29:42;10.60;;;9.70;;
2542;SDS011;1116;51.502;7.414;2023-05-07T05:32:13;11.27;;;10.20;;
2542;SDS011;1116;51.502;7.414;2023-05-07T05:34:44;8.47;;;7.60;;
2542;SDS011;1116;51.502;7.414;2023-05-07T05:37:17;9.97;;;7.57;;
2542;SDS011;1116;51.502;7.414;2023-05-07T05:39:48;7.60;;;6.90;;
2542;SDS011;1116;51.502;7.414;2023-05-07T05:42:22;7.23;;;6.37;;
2542;SDS011;1116;51.502;7.414;2023-05-07T05:44:53;6.83;;;6.13;;
2542;SDS011;1116;51.502;7.414;2023-05-07T05:47:24;7.60;;;6.97;;
2542;SDS011;1116;51.502;7.414;2023-05-07T05:49:55;7.90;;;6.07;;
2542;SDS011;1116;51.502;7.414;2023-05-07T05:52:26;6.73;;;6.23;;
2542;SDS011;1116;51.502;7.414;2023-05-07T05:54:57;6.57;;;6.07;;
2542;SDS011;1116;51.502;7.414;2023-05-07T06:04:48;7.10;;;6.60;;
2542;SDS011;1116;51.502;7.414;2023-05-07T06:07:19;8.17;;;7.40;;
2542;SDS011;1116;51.502;7.414;2023-05-07T06:09:50;7.40;;;6.73;;
2542;SDS011;1116;51.502;7.414;2023-05-07T06:12:21;6.40;;;5.90;;
2542;SDS011;1116;51.502;7.414;2023-05-07T06:14:52;6.90;;;6.10;;
2542;SDS011;1116;51.502;7.414;2023-05-07T06:17:22;6.10;;;5.60;;
2542;SDS011;1116;51.502;7.414;2023-05-07T06:19:56;6.10;;;5.60;;
2542;SDS011;1116;51.502;7.414;2023-05-07T06:22:27;6.50;;;5.90;;
2542;SDS011;1116;51.502;7.414;2023-05-07T06:24:58;5.63;;;5.13;;
2542;SDS011;1116;51.502;7.414;2023-05-07T06:27:29;5.50;;;5.00;;
2542;SDS011;1116;51.502;7.414;2023-05-07T06:30:00;6.13;;;5.63;;
2542;SDS011;1116;51.502;7.414;2023-05-07T06:32:31;5.63;;;5.00;;
2542;SDS011;1116;51.502;7.414;2023-05-07T06:35:05;5.37;;;4.97;;
2542;SDS011;1116;51.502;7.414;2023-05-07T06:37:36;5.23;;;4.83;;
2542;SDS011;1116;51.502;7.414;2023-05-07T06:40:14;5.20;;;4.80;;
2542;SDS011;1116;51.502;7.414;2023-05-07T06:42:45;6.23;;;5.63;;
2542;SDS011;1116;51.502;7.414;2023-05-07T06:45:16;6.90;;;5.27;;
2542;SDS011;1116;51.502;7.414;2023-05-07T06:47:47;5.57;;;5.17;;
2542;SDS011;1116;51.502;7.414;2023-05-07T06:50:23;8.43;;;5.30;;
2542;SDS011;1116;51.502;7.414;2023-05-07T06:52:54;5.50;;;5.00;;
2542;SDS011;1116;51.502;7.414;2023-05-07T06:55:25;6.47;;;5.87;;
2542;SDS011;1116;51.502;7.414;2023-05-07T06:57:56;6.50;;;5.90;;
2542;SDS011;1116;51.502;7.414;2023-05-07T07:00:28;6.33;;;5.33;;
2542;SDS011;1116;51.502;7.414;2023-05-07T07:02:59;6.00;;;5.50;;
2542;SDS011;1116;51.502;7.414;2023-05-07T07:05:35;6.30;;;5.80;;
2542;SDS011;1116;51.502;7.414;2023-05-07T07:08:06;5.87;;;5.33;;
2542;SDS011;1116;51.502;7.414;2023-05-07T07:10:37;5.63;;;5.13;;
2542;SDS011;1116;51.502;7.414;2023-05-07T07:13:08;6.57;;;5.80;;
2542;SDS011;1116;51.502;7.414;2023-05-07T07:15:39;6.33;;;5.73;;
2542;SDS011;1116;51.502;7.414;2023-05-07T07:18:13;6.50;;;5.90;;
2542;SDS011;1116;51.502;7.414;2023-05-07T07:20:46;6.40;;;5.90;;
2542;SDS011;1116;51.502;7.414;2023-05-07T07:23:18;6.20;;;5.70;;
2542;SDS011;1116;51.502;7.414;2023-05-07T07:25:49;6.83;;;6.30;;
2542;SDS011;1116;51.502;7.414;2023-05-07T07:28:20;6.17;;;5.70;;
2542;SDS011;1116;51.502;7.414;2023-05-07T07:30:51;6.87;;;6.17;;
2542;SDS011;1116;51.502;7.414;2023-05-07T07:33:22;8.60;;;6.57;;
2542;SDS011;1116;51.502;7.414;2023-05-07T07:35:59;7.73;;;6.10;;
2542;SDS011;1116;51.502;7.414;2023-05-07T07:38:30;5.87;;;5.37;;
2542;SDS011;1116;51.502;7.414;2023-05-07T07:41:01;7.13;;;6.53;;
2542;SDS011;1116;51.502;7.414;2023-05-07T07:43:32;7.43;;;6.30;;
2542;SDS011;1116;51.502;7.414;2023-05-07T07:46:06;7.40;;;6.23;;
2542;SDS011;1116;51.502;7.414;2023-05-07T07:48:40;7.07;;;6.47;;
2542;SDS011;1116;51.502;7.414;2023-05-07T07:51:17;6.93;;;6.33;;
2542;SDS011;1116;51.502;7.414;2023-05-07T07:53:48;9.83;;;6.20;;
2542;SDS011;1116;51.502;7.414;2023-05-07T07:56:19;7.87;;;6.03;;
2542;SDS011;1116;51.502;7.414;2023-05-07T07:58:50;6.87;;;6.27;;
2542;SDS011;1116;51.502;7.414;2023-05-07T08:01:20;6.73;;;6.23;;
2542;SDS011;1116;51.502;7.414;2023-05-07T08:03:52;6.50;;;6.00;;
2542;SDS011;1116;51.502;7.414;2023-05-07T08:06:25;5.83;;;5.43;;
2542;SDS011;1116;51.502;7.414;2023-05-07T08:08:56;7.10;;;6.47;;
2542;SDS011;1116;51.502;7.414;2023-05-07T08:11:27;6.70;;;6.10;;
2542;SDS011;1116;51.502;7.414;2023-05-07T08:13:58;6.80;;;6.30;;
2542;SDS011;1116;51.502;7.414;2023-05-07T08:16:32;7.17;;;6.57;;
2542;SDS011;1116;51.502;7.414;2023-05-07T08:19:03;6.50;;;6.00;;
2542;SDS011;1116;51.502;7.414;2023-05-07T08:21:38;6.70;;;6.10;;
2542;SDS011;1116;51.502;7.414;2023-05-07T08:24:09;6.70;;;6.10;;
2542;SDS011;1116;51.502;7.414;2023-05-07T08:26:40;7.37;;;6.67;;
2542;SDS011;1116;51.502;7.414;2023-05-07T08:29:13;7.00;;;6.30;;
2542;SDS011;1116;51.502;7.414;2023-05-07T08:31:44;7.67;;;7.07;;
2542;SDS011;1116;51.502;7.414;2023-05-07T08:34:15;7.50;;;6.90;;
2542;SDS011;1116;51.502;7.414;2023-05-07T08:36:49;8.10;;;7.50;;
2542;SDS011;1116;51.502;7.414;2023-05-07T08:39:20;8.27;;;7.57;;
2542;SDS011;1116;51.502;7.414;2023-05-07T08:41:51;8.50;;;7.60;;
2542;SDS011;1116;51.502;7.414;2023-05-07T08:44:32;7.90;;;7.20;;
2542;SDS011;1116;51.502;7.414;2023-05-07T08:47:06;9.73;;;8.93;;
2542;SDS011;1116;51.502;7.414;2023-05-07T08:49:37;11.93;;;8.40;;
2542;SDS011;1116;51.502;7.414;2023-05-07T08:52:11;8.17;;;7.57;;
2542;SDS011;1116;51.502;7.414;2023-05-07T08:54:42;8.63;;;7.93;;
2542;SDS011;1116;51.502;7.414;2023-05-07T08:57:16;9.20;;;8.40;;
2542;SDS011;1116;51.502;7.414;2023-05-07T08:59:47;12.33;;;11.33;;
2542;SDS011;1116;51.502;7.414;2023-05-07T09:02:18;11.10;;;10.00;;
2542;SDS011;1116;51.502;7.414;2023-05-07T09:04:50;9.17;;;8.37;;
2542;SDS011;1116;51.502;7.414;2023-05-07T09:07:23;8.77;;;7.97;;
2542;SDS011;1116;51.502;7.414;2023-05-07T09:09:55;10.60;;;9.60;;
2542;SDS011;1116;51.502;7.414;2023-05-07T09:12:27;11.07;;;9.97;;
2542;SDS011;1116;51.502;7.414;2023-05-07T09:15:03;9.50;;;8.67;;
2542;SDS011;1116;51.502;7.414;2023-05-07T09:17:38;10.27;;;9.27;;
2542;SDS011;1116;51.502;7.414;2023-05-07T09:20:10;10.80;;;9.80;;
2542;SDS011;1116;51.502;7.414;2023-05-07T09:22:43;10.40;;;9.50;;
2542;SDS011;1116;51.502;7.414;2023-05-07T09:25:18;10.77;;;9.80;;
2542;SDS011;1116;51.502;7.414;2023-05-07T09:27:58;11.27;;;9.80;;
2542;SDS011;1116;51.502;7.414;2023-05-07T09:30:31;10.47;;;9.57;;
2542;SDS011;1116;51.502;7.414;2023-05-07T09:33:03;9.93;;;9.10;;
2542;SDS011;1116;51.502;7.414;2023-05-07T09:35:34;11.83;;;10.73;;
2542;SDS011;1116;51.502;7.414;2023-05-07T09:38:10;11.50;;;10.60;;
2542;SDS011;1116;51.502;7.414;2023-05-07T09:40:42;11.40;;;10.30;;
2542;SDS011;1116;51.502;7.414;2023-05-07T09:43:13;12.53;;;10.90;;
2542;SDS011;1116;51.502;7.414;2023-05-07T09:45:44;11.00;;;10.00;;
2542;SDS011;1116;51.502;7.414;2023-05-07T09:48:19;12.63;;;10.93;;
2542;SDS011;1116;51.502;7.414;2023-05-07T09:50:51;11.10;;;10.00;;
2542;SDS011;1116;51.502;7.414;2023-05-07T09:53:28;10.23;;;9.33;;
2542;SDS011;1116;51.502;7.414;2023-05-07T09:56:00;9.20;;;8.40;;
2542;SDS011;1116;51.502;7.414;2023-05-07T09:58:33;8.40;;;7.70;;
2542;SDS011;1116;51.502;7.414;2023-05-07T10:01:08;8.00;;;6.33;;
2542;SDS011;1116;51.502;7.414;2023-05-07T10:03:40;10.73;;;9.60;;
2542;SDS011;1116;51.502;7.414;2023-05-07T10:06:15;10.13;;;9.23;;
2542;SDS011;1116;51.502;7.414;2023-05-07T10:08:49;10.30;;;9.33;;
2542;SDS011;1116;51.502;7.414;2023-05-07T10:11:22;9.77;;;8.87;;
2542;SDS011;1116;51.502;7.414;2023-05-07T10:13:53;10.03;;;9.13;;
2542;SDS011;1116;51.502;7.414;2023-05-07T10:16:24;9.80;;;8.90;;
2542;SDS011;1116;51.502;7.414;2023-05-07T10:18:56;11.03;;;10.10;;
2542;SDS011;1116;51.502;7.414;2023-05-07T10:21:28;10.07;;;9.07;;
2542;SDS011;1116;51.502;7.414;2023-05-07T10:24:08;10.07;;;9.17;;
2542;SDS011;1116;51.502;7.414;2023-05-07T10:26:42;10.67;;;9.37;;
2542;SDS011;1116;51.502;7.414;2023-05-07T10:29:15;9.00;;;8.20;;
2542;SDS011;1116;51.502;7.414;2023-05-07T10:32:04;7.17;;;6.50;;
2542;SDS011;1116;51.502;7.414;2023-05-07T10:34:56;9.23;;;8.33;;
2542;SDS011;1116;51.502;7.414;2023-05-07T10:37:30;9.37;;;8.47;;
2542;SDS011;1116;51.502;7.414;2023-05-07T10:40:05;7.73;;;7.10;;
2542;SDS011;1116;51.502;7.414;2023-05-07T10:42:37;6.93;;;6.33;;
2542;SDS011;1116;51.502;7.414;2023-05-07T10:45:11;8.07;;;7.37;;
2542;SDS011;1116;51.502;7.414;2023-05-07T10:53:53;7.47;;;6.87;;
2542;SDS011;1116;51.502;7.414;2023-05-07T10:56:55;8.53;;;7.83;;
2542;SDS011;1116;51.502;7.414;2023-05-07T10:59:35;8.40;;;7.73;;
2542;SDS011;1116;51.502;7.414;2023-05-07T11:02:13;7.17;;;6.50;;
2542;SDS011;1116;51.502;7.414;2023-05-07T11:04:44;8.60;;;7.80;;
2542;SDS011;1116;51.502;7.414;2023-05-07T11:07:21;6.77;;;6.17;;
2542;SDS011;1116;51.502;7.414;2023-05-07T11:09:56;7.27;;;6.67;;
2542;SDS011;1116;51.502;7.414;2023-05-07T11:15:34;8.87;;;7.03;;
2542;SDS011;1116;51.502;7.414;2023-05-07T11:18:11;7.63;;;6.60;;
2542;SDS011;1116;51.502;7.414;2023-05-07T11:20:48;7.33;;;6.50;;
2542;SDS011;1116;51.502;7.414;2023-05-07T11:26:21;6.90;;;6.30;;
2542;SDS011;1116;51.502;7.414;2023-05-07T11:28:55;7.73;;;7.00;;
2542;SDS011;1116;51.502;7.414;2023-05-07T11:31:27;6.50;;;5.90;;
2542;SDS011;1116;51.502;7.414;2023-05-07T11:33:59;9.33;;;8.33;;
2542;SDS011;1116;51.502;7.414;2023-05-07T11:36:31;8.80;;;8.00;;
2542;SDS011;1116;51.502;7.414;2023-05-07T11:39:03;9.80;;;8.90;;
2542;SDS011;1116;51.502;7.414;2023-05-07T11:41:36;10.30;;;9.13;;
2542;SDS011;1116;51.502;7.414;2023-05-07T11:44:12;10.17;;;9.20;;
2542;SDS011;1116;51.502;7.414;2023-05-07T11:46:44;9.70;;;8.77;;
2542;SDS011;1116;51.502;7.414;2023-05-07T11:49:15;9.80;;;8.57;;
2542;SDS011;1116;51.502;7.414;2023-05-07T11:51:49;10.37;;;8.63;;
2542;SDS011;1116;51.502;7.414;2023-05-07T11:54:20;9.97;;;9.00;;
2542;SDS011;1116;51.502;7.414;2023-05-07T11:56:51;9.53;;;8.73;;
2542;SDS011;1116;51.502;7.414;2023-05-07T11:59:24;9.87;;;8.87;;
2542;SDS011;1116;51.502;7.414;2023-05-07T12:01:56;10.20;;;9.20;;
2542;SDS011;1116;51.502;7.414;2023-05-07T12:04:29;9.57;;;8.77;;
2542;SDS011;1116;51.502;7.414;2023-05-07T12:07:00;10.37;;;9.47;;
2542;SDS011;1116;51.502;7.414;2023-05-07T12:09:32;11.00;;;9.77;;
2542;SDS011;1116;51.502;7.414;2023-05-07T12:12:03;11.13;;;10.13;;
2542;SDS011;1116;51.502;7.414;2023-05-07T12:14:39;9.40;;;8.60;;
2542;SDS011;1116;51.502;7.414;2023-05-07T12:17:11;8.70;;;8.00;;
2542;SDS011;1116;51.502;7.414;2023-05-07T12:19:44;6.63;;;6.03;;
2542;SDS011;1116;51.502;7.414;2023-05-07T12:22:16;5.90;;;5.40;;
2542;SDS011;1116;51.502;7.414;2023-05-07T12:24:49;6.03;;;5.60;;
2542;SDS011;1116;51.502;7.414;2023-05-07T12:27:27;8.13;;;7.43;;
2542;SDS011;1116;51.502;7.414;2023-05-07T12:30:00;7.20;;;6.50;;
2542;SDS011;1116;51.502;7.414;2023-05-07T12:32:34;8.70;;;7.67;;
2542;SDS011;1116;51.502;7.414;2023-05-07T12:35:07;8.20;;;7.50;;
2542;SDS011;1116;51.502;7.414;2023-05-07T12:37:39;7.23;;;6.50;;
2542;SDS011;1116;51.502;7.414;2023-05-07T12:40:11;8.50;;;7.20;;
2542;SDS011;1116;51.502;7.414;2023-05-07T12:42:45;8.33;;;7.53;;
2542;SDS011;1116;51.502;7.414;2023-05-07T12:45:19;7.20;;;6.60;;
2542;SDS011;1116;51.502;7.414;2023-05-07T12:47:50;6.97;;;6.37;;
2542;SDS011;1116;51.502;7.414;2023-05-07T12:50:21;7.00;;;6.40;;
2542;SDS011;1116;51.502;7.414;2023-05-07T12:52:52;7.90;;;7.10;;
2542;SDS011;1116;51.502;7.414;2023-05-07T12:55:23;8.77;;;8.00;;
2542;SDS011;1116;51.502;7.414;2023-05-07T12:58:00;7.70;;;7.10;;
2542;SDS011;1116;51.502;7.414;2023-05-07T13:00:35;7.13;;;6.03;;
2542;SDS011;1116;51.502;7.414;2023-05-07T13:03:07;8.33;;;7.43;;
2542;SDS011;1116;51.502;7.414;2023-05-07T13:05:38;7.50;;;6.90;;
2542;SDS011;1116;51.502;7.414;2023-05-07T13:08:10;7.90;;;7.13;;
2542;SDS011;1116;51.502;7.414;2023-05-07T13:10:40;8.07;;;7.10;;
2542;SDS011;1116;51.502;7.414;2023-05-07T13:13:11;6.50;;;6.00;;
2542;SDS011;1116;51.502;7.414;2023-05-07T13:15:45;6.50;;;5.87;;
2542;SDS011;1116;51.502;7.414;2023-05-07T13:18:16;6.57;;;5.97;;
2542;SDS011;1116;51.502;7.414;2023-05-07T13:20:49;7.00;;;6.33;;
2542;SDS011;1116;51.502;7.414;2023-05-07T13:23:20;7.17;;;6.57;;
2542;SDS011;1116;51.502;7.414;2023-05-07T13:25:51;8.70;;;8.00;;
2542;SDS011;1116;51.502;7.414;2023-05-07T13:28:23;8.50;;;7.80;;
2542;SDS011;1116;51.502;7.414;2023-05-07T13:30:57;8.43;;;7.73;;
2542;SDS011;1116;51.502;7.414;2023-05-07T13:33:31;7.80;;;7.10;;
2542;SDS011;1116;51.502;7.414;2023-05-07T13:36:04;7.27;;;6.57;;
2542;SDS011;1116;51.502;7.414;2023-05-07T13:38:36;7.80;;;7.20;;
2542;SDS011;1116;51.502;7.414;2023-05-07T13:41:11;6.67;;;6.00;;
2542;SDS011;1116;51.502;7.414;2023-05-07T13:43:42;7.60;;;6.90;;
2542;SDS011;1116;51.502;7.414;2023-05-07T13:46:16;6.40;;;5.80;;
2542;SDS011;1116;51.502;7.414;2023-05-07T13:48:49;6.33;;;5.73;;
2542;SDS011;1116;51.502;7.414;2023-05-07T13:51:23;8.23;;;5.50;;
2542;SDS011;1116;51.502;7.414;2023-05-07T13:53:54;6.57;;;5.47;;
2542;SDS011;1116;51.502;7.414;2023-05-07T13:56:25;6.40;;;5.57;;
2542;SDS011;1116;51.502;7.414;2023-05-07T13:58:59;6.30;;;5.80;;
2542;SDS011;1116;51.502;7.414;2023-05-07T14:01:35;7.07;;;6.10;;
2542;SDS011;1116;51.502;7.414;2023-05-07T14:04:06;6.00;;;5.40;;
2542;SDS011;1116;51.502;7.414;2023-05-07T14:06:37;6.50;;;5.93;;
2542;SDS011;1116;51.502;7.414;2023-05-07T14:09:09;6.30;;;5.70;;
2542;SDS011;1116;51.502;7.414;2023-05-07T14:11:40;6.20;;;5.70;;
2542;SDS011;1116;51.502;7.414;2023-05-07T14:14:11;6.17;;;5.57;;
2542;SDS011;1116;51.502;7.414;2023-05-07T14:16:45;6.67;;;5.57;;
2542;SDS011;1116;51.502;7.414;2023-05-07T14:19:17;7.17;;;6.00;;
2542;SDS011;1116;51.502;7.414;2023-05-07T14:21:50;6.53;;;5.93;;
2542;SDS011;1116;51.502;7.414;2023-05-07T14:24:20;7.27;;;6.57;;
2542;SDS011;1116;51.502;7.414;2023-05-07T14:27:05;6.83;;;6.30;;
2542;SDS011;1116;51.502;7.414;2023-05-07T14:29:36;7.60;;;6.90;;
2542;SDS011;1116;51.502;7.414;2023-05-07T14:32:09;7.30;;;6.70;;
2542;SDS011;1116;51.502;7.414;2023-05-07T14:34:40;7.90;;;7.20;;
2542;SDS011;1116;51.502;7.414;2023-05-07T14:37:14;8.53;;;7.73;;
2542;SDS011;1116;51.502;7.414;2023-05-07T14:39:52;7.63;;;6.93;;
2542;SDS011;1116;51.502;7.414;2023-05-07T14:42:24;8.90;;;7.23;;
2542;SDS011;1116;51.502;7.414;2023-05-07T14:44:55;8.03;;;6.70;;
2542;SDS011;1116;51.502;7.414;2023-05-07T14:47:34;8.17;;;7.37;;
2542;SDS011;1116;51.502;7.414;2023-05-07T14:50:05;8.07;;;7.37;;
2542;SDS011;1116;51.502;7.414;2023-05-07T14:52:38;8.40;;;7.70;;
2542;SDS011;1116;51.502;7.414;2023-05-07T14:55:08;8.80;;;7.30;;
2542;SDS011;1116;51.502;7.414;2023-05-07T14:57:40;7.60;;;6.90;;
2542;SDS011;1116;51.502;7.414;2023-05-07T15:00:11;9.63;;;7.40;;
2542;SDS011;1116;51.502;7.414;2023-05-07T15:02:49;7.90;;;7.17;;
2542;SDS011;1116;51.502;7.414;2023-05-07T15:05:21;8.50;;;7.70;;
2542;SDS011;1116;51.502;7.414;2023-05-07T15:07:52;8.63;;;7.83;;
2542;SDS011;1116;51.502;7.414;2023-05-07T15:10:24;8.13;;;7.00;;
2542;SDS011;1116;51.502;7.414;2023-05-07T15:12:55;6.30;;;5.77;;
2542;SDS011;1116;51.502;7.414;2023-05-07T15:15:26;7.53;;;6.53;;
2542;SDS011;1116;51.502;7.414;2023-05-07T15:17:59;8.47;;;6.10;;
2542;SDS011;1116;51.502;7.414;2023-05-07T15:20:30;8.00;;;7.30;;
2542;SDS011;1116;51.502;7.414;2023-05-07T15:23:02;6.80;;;6.30;;
2542;SDS011;1116;51.502;7.414;2023-05-07T15:25:37;5.77;;;5.27;;
2542;SDS011;1116;51.502;7.414;2023-05-07T15:28:08;5.53;;;5.00;;
2542;SDS011;1116;51.502;7.414;2023-05-07T15:30:39;4.10;;;3.80;;
2542;SDS011;1116;51.502;7.414;2023-05-07T15:33:12;4.50;;;4.10;;
2542;SDS011;1116;51.502;7.414;2023-05-07T15:35:43;4.00;;;3.60;;
2542;SDS011;1116;51.502;7.414;2023-05-07T15:38:14;3.30;;;3.00;;
2542;SDS011;1116;51.502;7.414;2023-05-07T15:40:45;4.07;;;3.50;;
2542;SDS011;1116;51.502;7.414;2023-05-07T15:43:17;5.43;;;3.43;;
2542;SDS011;1116;51.502;7.414;2023-05-07T15:45:50;4.30;;;3.40;;
2542;SDS011;1116;51.502;7.414;2023-05-07T15:48:27;4.07;;;3.37;;
2542;SDS011;1116;51.502;7.414;2023-05-07T15:50:58;3.93;;;3.57;;
2542;SDS011;1116;51.502;7.414;2023-05-07T15:53:30;3.90;;;3.60;;